createdAt,value
2023-01-13T00:01:07.700Z,6.02
2023-01-13T00:05:10.918Z,5.97
2023-01-13T00:09:13.622Z,5.93
2023-01-13T00:13:16.555Z,5.93
2023-01-13T00:17:20.731Z,5.86
2023-01-13T00:21:25.277Z,5.85
2023-01-13T00:25:28.250Z,5.81
2023-01-13T00:29:31.040Z,5.78
2023-01-13T00:33:35.589Z,5.74
2023-01-13T00:37:39.430Z,5.70
2023-01-13T00:41:59.754Z,5.68
2023-01-13T00:46:03.221Z,5.69
2023-01-13T00:50:07.940Z,5.72
2023-01-13T00:54:10.799Z,5.74
2023-01-13T00:58:13.555Z,5.74
2023-01-13T01:02:16.552Z,5.77
2023-01-13T01:06:22.535Z,5.78
2023-01-13T01:10:25.309Z,5.84
2023-01-13T01:14:28.479Z,5.86
2023-01-13T01:18:31.302Z,5.88
2023-01-13T01:22:35.432Z,5.88
2023-01-13T01:26:38.208Z,5.94
2023-01-13T01:30:40.987Z,5.94
2023-01-13T01:34:43.741Z,5.92
2023-01-13T01:38:48.203Z,5.93
2023-01-13T01:43:08.805Z,5.96
2023-01-13T01:47:15.332Z,6.01
2023-01-13T01:51:18.215Z,6.07
2023-01-13T01:55:25.063Z,6.13
2023-01-13T01:59:31.138Z,6.17
2023-01-13T02:03:36.507Z,6.18
2023-01-13T02:07:41.195Z,6.21
2023-01-13T02:12:03.038Z,6.24
2023-01-13T02:16:18.886Z,6.26
2023-01-13T02:21:00.314Z,6.27
2023-01-13T02:25:21.867Z,6.32
2023-01-13T02:30:09.050Z,6.32
2023-01-13T02:34:15.913Z,6.37
2023-01-13T02:38:24.490Z,6.42
2023-01-13T02:42:52.504Z,6.57
2023-01-13T02:47:02.095Z,6.61
2023-01-13T02:51:09.711Z,6.61
2023-01-13T02:55:17.917Z,6.63
2023-01-13T02:59:21.576Z,6.60
2023-01-13T03:03:25.961Z,6.60
2023-01-13T03:07:58.219Z,6.67
2023-01-13T03:12:11.483Z,6.69
2023-01-13T03:16:24.295Z,6.68
2023-01-13T03:20:34.142Z,6.74
2023-01-13T03:24:40.368Z,6.73
2023-01-13T03:28:49.462Z,6.77
2023-01-13T03:32:56.928Z,6.85
2023-01-13T03:37:04.787Z,6.90
2023-01-13T03:41:12.899Z,6.97
2023-01-13T03:45:18.905Z,6.95
2023-01-13T03:49:24.999Z,6.98
2023-01-13T03:53:32.440Z,6.97
2023-01-13T03:57:39.443Z,7.04
2023-01-13T04:01:49.504Z,7.09
2023-01-13T04:05:56.486Z,7.17
2023-01-13T04:10:03.722Z,7.20
2023-01-13T04:14:10.620Z,7.30
2023-01-13T04:18:16.415Z,7.35
2023-01-13T04:22:19.000Z,7.36
2023-01-13T04:26:23.478Z,7.31
2023-01-13T04:30:26.139Z,7.39
2023-01-13T04:34:28.750Z,7.41
2023-01-13T04:38:31.345Z,7.47
2023-01-13T04:42:35.476Z,7.53
2023-01-13T04:46:38.124Z,7.61
2023-01-13T04:50:41.157Z,7.59
2023-01-13T04:54:43.775Z,7.55
2023-01-13T04:58:47.703Z,7.49
2023-01-13T05:02:50.811Z,7.52
2023-01-13T05:06:53.514Z,7.61
2023-01-13T05:10:56.137Z,7.66
2023-01-13T05:15:17.767Z,7.59
2023-01-13T05:19:20.372Z,7.60
2023-01-13T05:23:40.817Z,7.70
2023-01-13T05:27:43.408Z,7.74
2023-01-13T05:31:47.384Z,7.78
2023-01-13T05:35:50.198Z,7.80
2023-01-13T05:40:10.571Z,7.81
2023-01-13T05:44:13.277Z,7.91
2023-01-13T05:48:18.304Z,7.85
2023-01-13T05:52:20.919Z,7.86
2023-01-13T05:56:23.544Z,7.86
2023-01-13T06:00:26.272Z,7.91
2023-01-13T06:04:30.260Z,7.92
2023-01-13T06:08:33.388Z,7.92
2023-01-13T06:12:37.313Z,7.96
2023-01-13T06:16:39.908Z,7.93
2023-01-13T06:20:44.061Z,7.97
2023-01-13T06:24:47.197Z,7.91
2023-01-13T06:28:50.085Z,7.96
2023-01-13T06:32:56.283Z,8.00
2023-01-13T06:37:00.348Z,7.98
2023-01-13T06:41:03.366Z,7.95
2023-01-13T06:45:06.787Z,7.91
2023-01-13T06:49:09.737Z,7.97
2023-01-13T06:53:13.660Z,8.00
2023-01-13T06:57:16.313Z,8.02
2023-01-13T07:01:18.967Z,8.04
2023-01-13T07:05:22.384Z,8.07
2023-01-13T07:09:26.311Z,8.04
2023-01-13T07:13:46.731Z,8.04
2023-01-13T07:17:49.316Z,8.15
2023-01-13T07:21:52.700Z,8.18
2023-01-13T07:25:57.522Z,8.08
2023-01-13T07:30:00.232Z,8.14
2023-01-13T07:34:06.089Z,8.08
2023-01-13T07:38:09.263Z,8.19
2023-01-13T07:42:30.618Z,8.19
2023-01-13T07:46:33.835Z,8.16
2023-01-13T07:50:36.520Z,8.19
2023-01-13T07:54:41.111Z,8.18
2023-01-13T07:58:50.260Z,8.18
2023-01-13T08:02:52.917Z,8.17
2023-01-13T08:06:55.598Z,8.17
2023-01-13T08:11:00.177Z,8.14
2023-01-13T08:15:04.818Z,8.15
2023-01-13T08:19:08.245Z,8.20
2023-01-13T08:23:10.838Z,8.25
2023-01-13T08:27:13.467Z,8.26
2023-01-13T08:31:20.431Z,8.35
2023-01-13T08:35:23.732Z,8.40
2023-01-13T09:02:03.435Z,8.59
2023-01-13T09:06:06.903Z,8.62
2023-01-13T09:10:11.193Z,8.61
2023-01-13T09:14:18.398Z,8.58
2023-01-13T09:18:20.998Z,8.59
2023-01-13T09:22:26.967Z,8.58
2023-01-13T09:26:29.579Z,8.57
2023-01-13T09:30:34.199Z,8.60
2023-01-13T09:34:55.195Z,8.60
2023-01-13T09:38:57.783Z,8.57
2023-01-13T09:43:24.193Z,8.65
2023-01-13T09:47:34.201Z,8.59
2023-01-13T09:51:42.497Z,8.64
2023-01-13T09:55:45.627Z,8.69
2023-01-13T09:59:49.223Z,8.75
2023-01-13T10:03:53.743Z,8.87
2023-01-13T10:08:04.636Z,8.99
2023-01-13T10:12:33.142Z,9.01
2023-01-13T10:32:04.894Z,10.30
2023-01-13T10:36:15.588Z,10.85
2023-01-13T10:40:19.484Z,10.86
2023-01-13T10:44:22.036Z,10.49
2023-01-13T10:48:34.202Z,10.38
2023-01-13T10:52:42.746Z,10.31
2023-01-13T10:56:46.757Z,10.27
2023-01-13T11:00:59.330Z,10.10
2023-01-13T11:05:16.057Z,10.06
2023-01-13T11:09:22.490Z,10.05
2023-01-13T11:13:32.211Z,9.97
2023-01-13T11:17:40.793Z,9.85
2023-01-13T11:21:52.144Z,9.66
2023-01-13T11:26:00.171Z,9.48
2023-01-13T11:30:11.013Z,9.40
2023-01-13T11:34:26.274Z,9.40
2023-01-13T11:38:38.869Z,9.40
2023-01-13T11:42:44.380Z,9.44
2023-01-13T11:46:49.171Z,9.37
2023-01-13T11:50:58.281Z,9.29
2023-01-13T11:55:15.616Z,9.06
2023-01-13T11:59:36.986Z,8.68
2023-01-13T12:03:42.917Z,8.34
2023-01-13T12:07:56.146Z,7.86
2023-01-13T12:12:22.944Z,7.04
2023-01-13T12:16:27.769Z,6.86
2023-01-13T12:20:36.913Z,6.78
2023-01-13T12:24:46.667Z,6.74
2023-01-13T12:28:57.111Z,6.73
2023-01-13T12:33:14.657Z,6.74
2023-01-13T12:37:27.246Z,6.73
2023-01-13T12:42:01.231Z,6.73
2023-01-13T12:46:44.605Z,6.76
2023-01-13T12:51:00.593Z,6.79
2023-01-13T12:55:20.046Z,6.83
2023-01-13T12:59:48.833Z,6.81
2023-01-13T13:04:12.084Z,6.84
2023-01-13T13:08:36.958Z,6.87
2023-01-13T13:13:16.093Z,6.82
2023-01-13T13:17:44.925Z,6.80
2023-01-13T13:22:37.389Z,6.84
2023-01-13T13:26:45.771Z,6.76
2023-01-13T13:31:18.197Z,6.75
2023-01-13T13:35:41.741Z,6.83
2023-01-13T13:40:03.573Z,6.81
2023-01-13T13:44:33.866Z,6.84
2023-01-13T13:48:37.320Z,6.73
2023-01-13T13:52:42.843Z,6.65
2023-01-13T13:56:48.970Z,6.66
2023-01-13T14:00:52.283Z,6.61
2023-01-13T14:05:08.161Z,6.57
2023-01-13T14:09:17.897Z,6.49
2023-01-13T14:13:23.939Z,6.44
2023-01-13T14:17:28.972Z,6.36
2023-01-13T14:21:32.087Z,6.31
2023-01-13T14:25:39.683Z,6.26
2023-01-13T14:29:44.237Z,6.28
2023-01-13T14:33:49.882Z,6.22
2023-01-13T14:38:01.820Z,6.13
2023-01-13T14:42:05.099Z,6.11
2023-01-13T14:46:09.271Z,6.13
2023-01-13T14:50:20.961Z,6.17
2023-01-13T14:54:45.264Z,6.30
2023-01-13T14:58:49.202Z,6.31
2023-01-13T15:03:07.566Z,6.24
2023-01-13T15:07:21.564Z,6.13
2023-01-13T15:11:28.207Z,6.09
2023-01-13T15:15:33.723Z,6.07
2023-01-13T15:19:37.691Z,6.04
2023-01-13T15:23:41.206Z,6.10
2023-01-13T15:27:46.018Z,6.08
2023-01-13T15:31:48.652Z,6.09
2023-01-13T15:35:54.110Z,6.04
2023-01-13T15:39:56.736Z,5.95
2023-01-13T15:44:17.204Z,5.91
2023-01-13T15:48:21.539Z,5.83
2023-01-13T15:52:27.930Z,5.71
2023-01-13T15:56:30.546Z,5.63
2023-01-13T16:00:33.955Z,5.55
2023-01-13T16:04:36.612Z,5.53
2023-01-13T16:08:40.647Z,5.50
2023-01-13T16:12:43.394Z,5.45
2023-01-13T16:16:46.044Z,5.44
2023-01-13T16:20:52.943Z,5.37
2023-01-13T16:24:56.976Z,5.27
2023-01-13T16:29:00.134Z,5.21
2023-01-13T16:33:03.314Z,5.10
2023-01-13T16:37:07.657Z,5.08
2023-01-13T16:41:11.720Z,5.01
2023-01-13T16:45:14.381Z,5.00
2023-01-13T16:49:17.618Z,5.03
2023-01-13T16:53:20.222Z,4.94
2023-01-13T16:57:24.184Z,4.89
2023-01-13T17:01:29.263Z,4.89
2023-01-13T17:05:31.953Z,4.87
2023-01-13T17:09:35.049Z,4.81
2023-01-13T17:13:39.032Z,4.78
2023-01-13T17:17:43.977Z,4.75
2023-01-13T17:21:47.389Z,4.71
2023-01-13T17:25:49.998Z,4.73
2023-01-13T17:29:54.078Z,4.77
2023-01-13T17:33:56.775Z,4.80
2023-01-13T17:37:59.381Z,4.74
2023-01-13T17:42:02.509Z,4.74
2023-01-13T17:46:10.182Z,4.66
2023-01-13T17:50:12.824Z,4.68
2023-01-13T17:54:16.107Z,4.62
2023-01-13T17:58:18.818Z,4.58
2023-01-13T18:02:22.946Z,4.51
2023-01-13T18:06:25.956Z,4.43
2023-01-13T18:10:28.583Z,4.36
2023-01-13T18:14:31.307Z,4.30
2023-01-13T18:18:35.916Z,4.23
2023-01-13T18:22:56.034Z,4.18
2023-01-13T18:27:16.747Z,4.16
2023-01-13T18:31:19.905Z,4.12
2023-01-13T18:35:23.875Z,4.04
2023-01-13T18:39:26.610Z,4.01
2023-01-13T18:43:29.279Z,3.91
2023-01-13T18:47:33.433Z,3.85
2023-01-13T18:51:37.446Z,3.81
2023-01-13T18:55:40.076Z,4.24
2023-01-13T18:59:42.719Z,4.73
2023-01-13T19:03:45.374Z,4.39
2023-01-13T19:07:51.738Z,4.10
2023-01-13T19:11:55.040Z,3.86
2023-01-13T19:15:57.805Z,3.74
2023-01-13T19:20:00.719Z,3.60
2023-01-13T19:24:04.959Z,3.50
2023-01-13T19:28:07.628Z,3.41
2023-01-13T19:32:11.309Z,3.32
2023-01-13T19:36:13.992Z,3.26
2023-01-13T19:40:18.284Z,3.22
2023-01-13T19:44:38.169Z,3.20
2023-01-13T19:48:42.927Z,3.11
2023-01-13T19:52:45.881Z,3.13
2023-01-13T19:56:50.132Z,3.11
2023-01-13T20:00:53.762Z,3.07
2023-01-13T20:04:56.938Z,3.13
2023-01-13T20:08:59.987Z,3.19
2023-01-13T20:13:04.830Z,3.18
2023-01-13T20:17:07.767Z,3.21
2023-01-13T20:21:10.674Z,3.20
2023-01-13T20:25:16.829Z,3.20
2023-01-13T20:29:21.052Z,3.14
2023-01-13T20:33:23.847Z,3.14
2023-01-13T20:37:26.843Z,3.18
2023-01-13T20:41:47.340Z,3.23
2023-01-13T20:45:51.304Z,3.24
2023-01-13T20:49:54.420Z,3.27
2023-01-13T20:53:57.444Z,3.29
2023-01-13T20:58:00.258Z,3.26
2023-01-13T21:02:04.910Z,3.30
2023-01-13T21:06:08.841Z,3.33
2023-01-13T21:10:12.388Z,3.34
2023-01-13T21:14:33.890Z,3.39
2023-01-13T21:18:55.214Z,3.48
2023-01-13T21:22:57.859Z,3.50
2023-01-13T21:27:00.495Z,3.53
2023-01-13T21:31:04.140Z,3.58
2023-01-13T21:35:09.142Z,3.57
2023-01-13T21:39:14.135Z,3.67
2023-01-13T21:43:34.362Z,3.63
2023-01-13T21:47:52.195Z,3.63
2023-01-13T21:51:56.223Z,3.59
2023-01-13T21:55:58.888Z,3.53
2023-01-13T22:00:01.801Z,3.48
2023-01-13T22:04:13.683Z,3.46
2023-01-13T22:08:17.731Z,3.40
2023-01-13T22:12:23.378Z,3.40
2023-01-13T22:16:26.586Z,3.40
2023-01-13T22:20:29.253Z,3.36
2023-01-13T22:24:33.229Z,3.36
2023-01-13T22:28:40.762Z,3.33
2023-01-13T22:32:43.556Z,3.40
2023-01-13T22:36:46.255Z,3.47
2023-01-13T22:40:58.076Z,3.52
2023-01-13T22:45:00.735Z,3.58
2023-01-13T22:49:03.467Z,3.61
2023-01-13T22:53:06.076Z,3.63
2023-01-13T22:57:10.388Z,3.71
2023-01-13T23:01:14.829Z,3.77
2023-01-13T23:05:17.656Z,3.84
2023-01-13T23:09:20.332Z,3.89
2023-01-13T23:13:24.308Z,3.92
2023-01-13T23:17:26.940Z,3.89
2023-01-13T23:21:31.536Z,3.84
2023-01-13T23:25:34.139Z,3.82
2023-01-13T23:29:38.143Z,3.80
2023-01-13T23:33:43.351Z,3.87
2023-01-13T23:37:45.997Z,3.91
2023-01-13T23:41:48.627Z,3.92
2023-01-13T23:45:52.794Z,3.97
2023-01-13T23:49:55.435Z,4.02
2023-01-13T23:53:59.718Z,4.06
2023-01-13T23:58:02.369Z,4.07
